createdAt,value
2023-03-29T00:01:42.187Z,101286.44
2023-03-29T00:04:10.540Z,101280.56
2023-03-29T00:06:38.032Z,101286.00
2023-03-29T00:09:06.208Z,101284.13
2023-03-29T00:11:33.319Z,101283.53
2023-03-29T00:13:59.965Z,101275.72
2023-03-29T00:16:27.043Z,101278.47
2023-03-29T00:18:53.724Z,101270.59
2023-03-29T00:21:20.874Z,101267.75
2023-03-29T00:23:47.591Z,101267.75
2023-03-29T00:26:14.288Z,101262.41
2023-03-29T00:28:41.021Z,101264.16
2023-03-29T00:31:13.167Z,101257.16
2023-03-29T00:33:40.830Z,101249.56
2023-03-29T00:36:08.952Z,101253.91
2023-03-29T00:38:36.350Z,101254.63
2023-03-29T00:41:04.856Z,101253.91
2023-03-29T00:43:31.781Z,101248.56
2023-03-29T00:45:58.460Z,101245.00
2023-03-29T00:48:28.141Z,101238.88
2023-03-29T00:50:58.301Z,101245.91
2023-03-29T00:53:33.657Z,101237.09
2023-03-29T00:56:07.031Z,101240.53
2023-03-29T00:58:45.595Z,101234.50
2023-03-29T01:01:19.629Z,101238.06
2023-03-29T01:03:50.684Z,101239.78
2023-03-29T01:06:19.317Z,101229.19
2023-03-29T01:08:51.759Z,101225.63
2023-03-29T01:11:22.961Z,101224.66
2023-03-29T01:13:55.185Z,101226.47
2023-03-29T01:16:22.463Z,101225.41
2023-03-29T01:18:49.186Z,101224.44
2023-03-29T01:21:23.698Z,101218.25
2023-03-29T01:23:53.421Z,101217.28
2023-03-29T01:26:51.346Z,101214.06
2023-03-29T01:29:28.776Z,101196.31
2023-03-29T01:32:03.756Z,101210.63
2023-03-29T01:34:39.072Z,101208.66
2023-03-29T01:37:39.733Z,101198.41
2023-03-29T01:40:06.919Z,101196.53
2023-03-29T01:42:47.989Z,101192.13
2023-03-29T01:45:27.708Z,101195.78
2023-03-29T01:48:29.575Z,101186.88
2023-03-29T01:51:04.669Z,101177.31
2023-03-29T01:53:38.571Z,101180.06
2023-03-29T01:56:26.684Z,101170.31
2023-03-29T01:59:04.238Z,101180.06
2023-03-29T02:01:34.948Z,101168.66
2023-03-29T02:04:04.292Z,101177.53
2023-03-29T02:06:32.920Z,101173.00
2023-03-29T02:09:00.002Z,101167.63
2023-03-29T02:11:29.511Z,101161.44
2023-03-29T02:13:59.460Z,101159.13
2023-03-29T02:16:26.201Z,101160.13
2023-03-29T02:18:56.438Z,101158.22
2023-03-29T02:21:33.184Z,101147.47
2023-03-29T02:24:01.220Z,101147.34
2023-03-29T02:26:29.219Z,101135.06
2023-03-29T02:28:56.255Z,101136.78
2023-03-29T02:31:32.527Z,101139.19
2023-03-29T02:34:04.346Z,101135.69
2023-03-29T02:36:34.860Z,101135.66
2023-03-29T02:39:04.649Z,101133.88
2023-03-29T02:41:31.950Z,101134.75
2023-03-29T02:43:59.642Z,101124.94
2023-03-29T02:46:26.748Z,101134.69
2023-03-29T02:48:54.788Z,101142.44
2023-03-29T02:51:25.723Z,101128.47
2023-03-29T02:54:21.720Z,101126.84
2023-03-29T02:56:50.749Z,101134.56
2023-03-29T02:59:19.599Z,101133.66
2023-03-29T03:01:46.503Z,101137.88
2023-03-29T03:04:13.496Z,101136.13
2023-03-29T03:06:40.906Z,101134.28
2023-03-29T03:09:08.174Z,101136.75
2023-03-29T03:11:35.525Z,101125.34
2023-03-29T03:14:02.296Z,101127.13
2023-03-29T03:16:29.025Z,101127.75
2023-03-29T03:18:55.913Z,101126.94
2023-03-29T03:21:23.061Z,101123.38
2023-03-29T03:23:49.928Z,101115.38
2023-03-29T03:26:18.245Z,101106.59
2023-03-29T03:28:45.872Z,101114.31
2023-03-29T03:31:15.537Z,101103.78
2023-03-29T03:33:42.259Z,101104.34
2023-03-29T03:36:11.050Z,101102.47
2023-03-29T03:38:38.423Z,101099.59
2023-03-29T03:41:07.077Z,101108.72
2023-03-29T03:43:34.067Z,101104.09
2023-03-29T03:46:00.882Z,101107.47
2023-03-29T03:48:28.051Z,101106.75
2023-03-29T03:50:57.154Z,101106.78
2023-03-29T03:53:26.579Z,101107.72
2023-03-29T03:55:56.122Z,101109.56
2023-03-29T03:58:23.275Z,101116.53
2023-03-29T04:00:50.931Z,101104.28
2023-03-29T04:03:18.445Z,101105.97
2023-03-29T04:05:46.676Z,101110.53
2023-03-29T04:08:14.298Z,101106.94
2023-03-29T04:10:41.336Z,101105.34
2023-03-29T04:13:08.453Z,101096.91
2023-03-29T04:15:38.728Z,101100.31
2023-03-29T04:18:07.591Z,101101.31
2023-03-29T04:20:34.788Z,101103.78
2023-03-29T04:23:01.866Z,101096.72
2023-03-29T04:25:29.104Z,101089.78
2023-03-29T04:27:56.304Z,101095.03
2023-03-29T04:30:23.437Z,101091.84
2023-03-29T04:32:50.203Z,101097.00
2023-03-29T04:35:16.937Z,101100.63
2023-03-29T04:37:43.808Z,101098.88
2023-03-29T04:40:15.093Z,101087.59
2023-03-29T04:42:44.574Z,101092.44
2023-03-29T04:45:14.065Z,101096.09
2023-03-29T04:47:42.206Z,101093.41
2023-03-29T04:50:09.339Z,101094.50
2023-03-29T04:52:36.323Z,101081.31
2023-03-29T04:55:04.913Z,101084.81
2023-03-29T04:57:31.643Z,101071.47
2023-03-29T04:59:58.423Z,101067.72
2023-03-29T05:02:25.123Z,101066.81
2023-03-29T05:04:52.421Z,101061.66
2023-03-29T05:07:19.684Z,101064.31
2023-03-29T05:09:46.482Z,101067.69
2023-03-29T05:12:13.267Z,101062.50
2023-03-29T05:14:40.061Z,101063.28
2023-03-29T05:17:06.766Z,101060.53
2023-03-29T05:19:33.876Z,101065.44
2023-03-29T05:22:00.936Z,101066.41
2023-03-29T05:24:27.718Z,101068.41
2023-03-29T05:26:54.604Z,101058.66
2023-03-29T05:29:21.841Z,101060.69
2023-03-29T05:31:48.617Z,101053.69
2023-03-29T05:34:15.345Z,101054.41
2023-03-29T05:36:42.998Z,101046.00
2023-03-29T05:39:11.099Z,101044.03
2023-03-29T05:41:38.123Z,101046.59
2023-03-29T05:44:04.851Z,101045.63
2023-03-29T05:46:31.705Z,101046.41
2023-03-29T05:48:58.383Z,101049.91
2023-03-29T05:51:25.145Z,101051.63
2023-03-29T05:53:52.334Z,101045.25
2023-03-29T05:56:19.331Z,101050.69
2023-03-29T05:58:54.847Z,101046.34
2023-03-29T06:01:22.749Z,101043.38
2023-03-29T06:03:49.731Z,101044.34
2023-03-29T06:06:16.858Z,101036.41
2023-03-29T06:08:44.355Z,101037.66
2023-03-29T06:11:13.522Z,101040.13
2023-03-29T06:13:41.649Z,101038.28
2023-03-29T06:16:10.539Z,101039.16
2023-03-29T06:18:40.419Z,101049.66
2023-03-29T06:21:09.451Z,101044.19
2023-03-29T06:23:36.712Z,101047.75
2023-03-29T06:26:03.968Z,101052.09
2023-03-29T06:28:30.819Z,101046.50
2023-03-29T06:31:02.874Z,101055.19
2023-03-29T06:33:32.500Z,101061.47
2023-03-29T06:35:59.558Z,101055.13
2023-03-29T06:38:28.689Z,101060.16
2023-03-29T06:41:06.892Z,101065.16
2023-03-29T06:43:34.955Z,101054.44
2023-03-29T06:46:02.159Z,101060.59
2023-03-29T06:48:29.308Z,101063.66
2023-03-29T06:50:56.610Z,101055.56
2023-03-29T06:53:23.443Z,101064.22
2023-03-29T06:55:52.374Z,101070.53
2023-03-29T06:58:19.043Z,101067.72
2023-03-29T07:00:46.273Z,101066.78
2023-03-29T07:03:20.139Z,101061.31
2023-03-29T07:05:47.865Z,101063.59
2023-03-29T07:08:16.661Z,101065.97
2023-03-29T07:10:47.625Z,101087.81
2023-03-29T07:13:15.751Z,101079.97
2023-03-29T07:15:44.008Z,101081.22
2023-03-29T07:18:11.602Z,101081.06
2023-03-29T07:20:39.104Z,101073.03
2023-03-29T07:23:07.097Z,101074.69
2023-03-29T07:25:34.314Z,101077.13
2023-03-29T07:28:02.272Z,101078.06
2023-03-29T07:30:32.149Z,101073.56
2023-03-29T07:32:59.700Z,101078.66
2023-03-29T07:35:27.035Z,101082.06
2023-03-29T07:37:55.965Z,101082.88
2023-03-29T07:40:24.371Z,101085.38
2023-03-29T07:42:57.399Z,101087.63
2023-03-29T07:45:28.540Z,101071.53
2023-03-29T07:47:59.740Z,101070.13
2023-03-29T07:50:27.679Z,101082.47
2023-03-29T07:52:54.940Z,101072.03
2023-03-29T07:55:22.345Z,101073.69
2023-03-29T07:57:49.968Z,101081.34
2023-03-29T08:00:17.681Z,101089.94
2023-03-29T08:02:45.959Z,101078.50
2023-03-29T08:05:15.442Z,101090.59
2023-03-29T08:07:46.795Z,101093.22
2023-03-29T08:10:16.050Z,101103.03
2023-03-29T08:12:43.332Z,101104.66
2023-03-29T08:15:11.255Z,101095.88
2023-03-29T08:17:38.194Z,101093.38
2023-03-29T08:20:07.689Z,101096.75
2023-03-29T08:22:34.647Z,101088.09
2023-03-29T08:25:02.714Z,101095.16
2023-03-29T08:27:29.501Z,101093.16
2023-03-29T08:29:56.620Z,101092.97
2023-03-29T08:32:23.588Z,101091.06
2023-03-29T08:34:50.384Z,101088.91
2023-03-29T08:37:17.458Z,101072.13
2023-03-29T08:39:44.262Z,101074.56
2023-03-29T08:42:38.767Z,101079.50
2023-03-29T08:45:23.446Z,101073.94
2023-03-29T08:48:12.645Z,101064.16
2023-03-29T08:50:52.963Z,101066.47
2023-03-29T08:53:34.986Z,101065.38
2023-03-29T08:56:05.597Z,101052.78
2023-03-29T08:58:34.065Z,101060.31
2023-03-29T09:01:03.122Z,101062.72
2023-03-29T09:04:05.336Z,101063.44
2023-03-29T09:06:32.112Z,101057.28
2023-03-29T09:08:58.856Z,101068.81
2023-03-29T09:11:26.291Z,101073.88
2023-03-29T09:14:08.892Z,101065.94
2023-03-29T09:16:56.370Z,101068.06
2023-03-29T09:19:40.213Z,101065.06
2023-03-29T09:22:16.252Z,101066.63
2023-03-29T09:25:04.238Z,101060.09
2023-03-29T09:27:39.337Z,101063.38
2023-03-29T09:30:25.934Z,101049.59
2023-03-29T09:32:53.955Z,101056.38
2023-03-29T09:35:28.045Z,101064.75
2023-03-29T09:37:55.337Z,101061.97
2023-03-29T09:40:31.301Z,101057.16
2023-03-29T09:42:58.665Z,101057.84
2023-03-29T09:45:25.390Z,101070.50
2023-03-29T09:48:05.571Z,101065.81
2023-03-29T09:50:42.834Z,101058.16
2023-03-29T09:53:10.190Z,101061.38
2023-03-29T09:55:39.869Z,101055.53
2023-03-29T09:58:23.558Z,101056.19
2023-03-29T10:00:50.587Z,101056.59
2023-03-29T10:03:24.689Z,101051.59
2023-03-29T10:05:55.838Z,101060.16
2023-03-29T10:08:27.423Z,101054.38
2023-03-29T10:10:55.093Z,101042.31
2023-03-29T10:13:30.855Z,101039.00
2023-03-29T10:16:09.429Z,101033.16
2023-03-29T10:18:42.191Z,101032.50
2023-03-29T10:21:15.819Z,101052.66
2023-03-29T10:23:44.250Z,101048.47
2023-03-29T10:26:24.485Z,101048.63
2023-03-29T10:28:53.803Z,101038.69
2023-03-29T10:31:21.485Z,101044.91
2023-03-29T10:33:53.357Z,101036.00
2023-03-29T10:36:27.475Z,101042.25
2023-03-29T10:38:58.102Z,101039.72
2023-03-29T10:41:27.405Z,101044.97
2023-03-29T10:43:54.790Z,101043.25
2023-03-29T10:46:30.587Z,101050.41
2023-03-29T10:49:10.429Z,101041.38
2023-03-29T10:51:37.683Z,101030.59
2023-03-29T10:54:05.504Z,101029.31
2023-03-29T10:56:41.588Z,101031.78
2023-03-29T11:00:07.200Z,101016.00
2023-03-29T11:03:10.292Z,101011.47
2023-03-29T11:06:08.453Z,101013.25
2023-03-29T11:08:49.639Z,100997.28
2023-03-29T11:11:45.425Z,100986.06
2023-03-29T11:14:28.183Z,100995.19
2023-03-29T11:16:58.234Z,100992.06
2023-03-29T11:19:25.147Z,100992.44
2023-03-29T11:22:10.441Z,100993.88
2023-03-29T11:24:43.361Z,101000.81
2023-03-29T11:27:16.183Z,101000.88
2023-03-29T11:29:54.690Z,101004.97
2023-03-29T11:32:40.449Z,101003.53
2023-03-29T11:35:25.536Z,100997.94
2023-03-29T11:38:02.681Z,100990.75
2023-03-29T11:40:41.302Z,100987.59
2023-03-29T11:43:25.432Z,100978.13
2023-03-29T11:46:20.885Z,100966.78
2023-03-29T11:48:51.931Z,100968.22
2023-03-29T11:51:38.488Z,100970.66
2023-03-29T11:54:13.351Z,100952.50
2023-03-29T11:56:44.762Z,100951.19
2023-03-29T11:59:23.939Z,100948.63
2023-03-29T12:01:56.503Z,100958.78
2023-03-29T12:04:30.320Z,100951.91
2023-03-29T12:07:13.714Z,100960.19
2023-03-29T12:09:46.950Z,100954.63
2023-03-29T12:12:25.272Z,100952.75
2023-03-29T12:15:00.981Z,100942.38
2023-03-29T12:17:31.541Z,100933.31
2023-03-29T12:20:15.811Z,100947.59
2023-03-29T12:22:51.102Z,100949.31
2023-03-29T12:25:23.251Z,100933.59
2023-03-29T12:28:11.808Z,100940.56
2023-03-29T12:30:50.102Z,100928.75
2023-03-29T12:33:55.243Z,100944.78
2023-03-29T12:36:41.690Z,100940.31
2023-03-29T12:39:14.342Z,100933.84
2023-03-29T12:41:41.923Z,100942.56
2023-03-29T12:44:13.709Z,100933.50
2023-03-29T12:46:40.818Z,100933.00
2023-03-29T12:49:15.243Z,100936.63
2023-03-29T12:51:43.579Z,100936.63
2023-03-29T12:54:22.240Z,100928.38
2023-03-29T12:56:52.311Z,100930.72
2023-03-29T12:59:40.818Z,100927.34
2023-03-29T13:02:17.851Z,100923.38
2023-03-29T13:04:58.344Z,100919.09
2023-03-29T13:07:27.985Z,100915.16
2023-03-29T13:10:03.853Z,100919.41
2023-03-29T13:12:39.624Z,100925.72
2023-03-29T13:15:22.298Z,100923.91
2023-03-29T13:17:54.398Z,100908.34
2023-03-29T13:20:33.240Z,100904.19
2023-03-29T13:23:26.705Z,100905.34
2023-03-29T13:26:19.245Z,100900.03
2023-03-29T13:28:46.268Z,100902.94
2023-03-29T13:31:22.191Z,100899.16
2023-03-29T13:34:07.294Z,100902.06
2023-03-29T13:36:50.750Z,100891.06
2023-03-29T13:39:22.845Z,100886.38
2023-03-29T13:41:51.924Z,100887.56
2023-03-29T13:44:46.298Z,100888.94
2023-03-29T13:47:19.408Z,100892.91
2023-03-29T13:49:58.326Z,100897.78
2023-03-29T13:52:32.943Z,100878.25
2023-03-29T13:55:32.958Z,100884.19
2023-03-29T13:58:08.578Z,100870.28
2023-03-29T14:00:40.242Z,100860.56
2023-03-29T14:03:13.430Z,100856.06
2023-03-29T14:05:42.875Z,100847.88
2023-03-29T14:08:22.604Z,100851.16
2023-03-29T14:10:49.518Z,100843.50
2023-03-29T14:13:18.861Z,100842.19
2023-03-29T14:15:49.749Z,100825.75
2023-03-29T14:18:19.408Z,100820.19
2023-03-29T14:20:47.322Z,100823.59
2023-03-29T14:23:19.482Z,100828.72
2023-03-29T14:25:46.878Z,100829.34
2023-03-29T14:28:25.497Z,100821.44
2023-03-29T14:30:55.510Z,100811.50
2023-03-29T14:33:28.010Z,100814.53
2023-03-29T14:35:59.226Z,100823.28
2023-03-29T14:38:27.302Z,100815.16
2023-03-29T14:40:58.358Z,100815.91
2023-03-29T14:43:27.694Z,100820.28
2023-03-29T14:45:54.962Z,100818.56
2023-03-29T14:48:22.332Z,100820.63
2023-03-29T14:50:50.103Z,100821.22
2023-03-29T14:53:19.883Z,100814.09
2023-03-29T14:55:50.641Z,100803.50
2023-03-29T14:58:23.538Z,100807.88
2023-03-29T15:00:52.549Z,100800.94
2023-03-29T15:03:22.995Z,100806.69
2023-03-29T15:06:08.640Z,100797.28
2023-03-29T15:08:38.854Z,100796.31
2023-03-29T15:11:32.300Z,100788.91
2023-03-29T15:14:05.014Z,100778.88
2023-03-29T15:16:32.155Z,100772.56
2023-03-29T15:19:01.794Z,100770.88
2023-03-29T15:21:34.034Z,100765.44
2023-03-29T15:24:02.747Z,100758.25
2023-03-29T15:26:34.951Z,100753.91
2023-03-29T15:29:08.377Z,100750.97
2023-03-29T15:31:41.414Z,100747.34
2023-03-29T15:34:14.769Z,100739.34
2023-03-29T15:36:43.762Z,100742.34
2023-03-29T15:39:15.783Z,100740.66
2023-03-29T15:41:43.420Z,100739.03
2023-03-29T15:44:11.389Z,100733.00
2023-03-29T15:46:38.384Z,100724.25
2023-03-29T15:49:05.342Z,100725.19
2023-03-29T15:51:38.977Z,100717.19
2023-03-29T15:54:06.882Z,100714.53
2023-03-29T15:56:37.391Z,100704.69
2023-03-29T15:59:04.806Z,100704.34
2023-03-29T16:01:39.177Z,100693.56
2023-03-29T16:04:18.122Z,100694.16
2023-03-29T16:06:47.184Z,100687.84
2023-03-29T16:09:15.871Z,100687.16
2023-03-29T16:11:44.431Z,100679.13
2023-03-29T16:14:27.472Z,100681.16
2023-03-29T16:17:02.662Z,100680.31
2023-03-29T16:19:31.306Z,100681.63
2023-03-29T16:22:07.369Z,100678.09
2023-03-29T16:24:35.737Z,100670.84
2023-03-29T16:27:02.879Z,100658.34
2023-03-29T16:29:30.047Z,100656.75
2023-03-29T16:31:57.431Z,100656.03
2023-03-29T16:34:24.388Z,100647.19
2023-03-29T16:36:51.317Z,100641.00
2023-03-29T16:39:18.745Z,100644.38
2023-03-29T16:41:48.596Z,100637.09
2023-03-29T16:44:23.556Z,100632.63
2023-03-29T16:46:51.754Z,100629.47
2023-03-29T16:49:18.480Z,100630.41
2023-03-29T16:51:48.506Z,100632.13
2023-03-29T16:54:17.310Z,100619.75
2023-03-29T16:56:44.119Z,100625.34
2023-03-29T16:59:11.019Z,100618.03
2023-03-29T17:01:38.792Z,100624.13
2023-03-29T17:04:05.679Z,100617.19
2023-03-29T17:06:33.018Z,100612.69
2023-03-29T17:09:02.854Z,100616.34
2023-03-29T17:11:29.809Z,100609.31
2023-03-29T17:13:56.958Z,100604.59
2023-03-29T17:16:32.998Z,100589.78
2023-03-29T17:19:01.921Z,100605.81
2023-03-29T17:21:29.758Z,100606.88
2023-03-29T17:23:56.564Z,100618.16
2023-03-29T17:26:25.415Z,100611.13
2023-03-29T17:28:52.146Z,100611.13
2023-03-29T17:31:19.843Z,100609.19
2023-03-29T17:33:47.693Z,100606.50
2023-03-29T17:36:14.609Z,100601.06
2023-03-29T17:38:43.235Z,100598.97
2023-03-29T17:41:10.201Z,100586.72
2023-03-29T17:43:37.076Z,100591.72
2023-03-29T17:46:04.050Z,100591.72
2023-03-29T17:48:36.992Z,100586.59
2023-03-29T17:51:03.825Z,100583.81
2023-03-29T17:53:33.656Z,100584.66
2023-03-29T17:56:00.604Z,100586.38
2023-03-29T17:58:27.414Z,100572.53
2023-03-29T18:00:54.126Z,100576.38
2023-03-29T18:03:20.968Z,100565.84
2023-03-29T18:05:48.369Z,100564.38
2023-03-29T18:08:15.255Z,100563.28
2023-03-29T18:10:42.036Z,100564.16
2023-03-29T18:13:14.013Z,100564.03
2023-03-29T18:15:40.749Z,100564.03
2023-03-29T18:18:07.619Z,100553.59
2023-03-29T18:20:34.387Z,100559.66
2023-03-29T18:23:01.297Z,100553.22
2023-03-29T18:25:28.127Z,100556.13
2023-03-29T18:27:54.897Z,100551.66
2023-03-29T18:30:21.727Z,100547.50
2023-03-29T18:32:48.557Z,100549.56
2023-03-29T18:35:15.380Z,100550.31
2023-03-29T18:37:42.039Z,100547.50
2023-03-29T18:40:09.555Z,100552.03
2023-03-29T18:42:36.432Z,100553.69
2023-03-29T18:45:04.544Z,100544.22
2023-03-29T18:47:36.433Z,100543.03
2023-03-29T18:50:03.314Z,100543.03
2023-03-29T18:52:30.174Z,100539.75
2023-03-29T18:54:56.860Z,100534.16
2023-03-29T18:57:23.717Z,100541.19
2023-03-29T18:59:50.457Z,100534.16
2023-03-29T19:02:17.444Z,100536.34
2023-03-29T19:04:44.168Z,100540.72
2023-03-29T19:07:10.944Z,100534.63
2023-03-29T19:09:37.692Z,100531.25
2023-03-29T19:12:04.738Z,100524.22
2023-03-29T19:14:31.714Z,100526.13
2023-03-29T19:17:05.979Z,100519.09
2023-03-29T19:19:32.765Z,100514.75
2023-03-29T19:22:00.709Z,100527.09
2023-03-29T19:24:27.635Z,100521.03
2023-03-29T19:26:54.736Z,100520.94
2023-03-29T19:29:21.808Z,100516.78
2023-03-29T19:31:48.634Z,100522.22
2023-03-29T19:34:19.771Z,100516.19
2023-03-29T19:36:47.095Z,100513.59
2023-03-29T19:39:18.541Z,100505.50
2023-03-29T19:41:45.386Z,100498.44
2023-03-29T19:44:12.135Z,100496.66
2023-03-29T19:46:39.105Z,100500.19
2023-03-29T19:49:06.399Z,100494.06
2023-03-29T19:51:33.108Z,100491.31
2023-03-29T19:54:00.014Z,100488.00
2023-03-29T19:56:26.874Z,100487.03
2023-03-29T19:58:53.939Z,100495.78
2023-03-29T20:01:21.184Z,100492.25
2023-03-29T20:03:51.261Z,100489.19
2023-03-29T20:06:19.431Z,100489.09
2023-03-29T20:08:46.979Z,100479.50
2023-03-29T20:11:14.948Z,100476.72
2023-03-29T20:13:42.750Z,100472.34
2023-03-29T20:16:11.863Z,100470.53
2023-03-29T20:18:39.176Z,100466.78
2023-03-29T20:21:06.819Z,100466.91
2023-03-29T20:23:34.162Z,100464.47
2023-03-29T20:26:01.578Z,100462.25
2023-03-29T20:28:28.441Z,100458.63
2023-03-29T20:30:55.298Z,100457.66
2023-03-29T20:33:22.416Z,100456.06
2023-03-29T20:35:49.627Z,100442.88
2023-03-29T20:38:17.059Z,100443.00
2023-03-29T20:40:45.053Z,100442.03
2023-03-29T20:43:13.705Z,100435.84
2023-03-29T20:45:52.513Z,100435.22
2023-03-29T20:48:23.756Z,100435.22
2023-03-29T20:50:51.040Z,100427.97
2023-03-29T20:53:18.541Z,100424.56
2023-03-29T20:55:45.967Z,100430.13
2023-03-29T20:58:16.217Z,100427.34
2023-03-29T21:00:43.995Z,100417.66
2023-03-29T21:03:11.639Z,100417.03
2023-03-29T21:05:39.221Z,100409.66
2023-03-29T21:08:06.234Z,100400.69
2023-03-29T21:10:33.095Z,100398.13
2023-03-29T21:13:00.528Z,100397.53
2023-03-29T21:15:30.645Z,100390.50
2023-03-29T21:17:57.965Z,100379.84
2023-03-29T21:20:24.853Z,100386.13
2023-03-29T21:22:51.829Z,100375.59
2023-03-29T21:25:18.969Z,100367.69
2023-03-29T21:27:45.877Z,100365.38
2023-03-29T21:30:12.837Z,100359.94
2023-03-29T21:32:39.601Z,100361.66
2023-03-29T21:35:07.117Z,100359.47
2023-03-29T21:37:33.839Z,100349.50
2023-03-29T21:40:00.753Z,100354.63
2023-03-29T21:42:27.420Z,100348.31
2023-03-29T21:44:54.228Z,100340.56
2023-03-29T21:47:21.049Z,100335.09
2023-03-29T21:49:47.836Z,100335.22
2023-03-29T21:52:14.590Z,100331.84
2023-03-29T21:54:41.267Z,100330.00
2023-03-29T21:57:08.476Z,100343.22
2023-03-29T21:59:35.182Z,100338.75
2023-03-29T22:02:01.941Z,100337.19
2023-03-29T22:04:36.594Z,100343.22
2023-03-29T22:07:04.917Z,100352.44
2023-03-29T22:09:33.034Z,100335.47
2023-03-29T22:11:59.982Z,100336.44
2023-03-29T22:14:28.711Z,100327.81
2023-03-29T22:16:55.582Z,100335.94
2023-03-29T22:19:22.338Z,100333.03
2023-03-29T22:21:49.018Z,100330.38
2023-03-29T22:24:16.625Z,100330.38
2023-03-29T22:26:45.106Z,100329.50
2023-03-29T22:29:12.210Z,100324.19
2023-03-29T22:31:39.678Z,100320.19
2023-03-29T22:34:06.900Z,100319.22
2023-03-29T22:36:33.809Z,100306.97
2023-03-29T22:39:00.780Z,100307.69
2023-03-29T22:41:28.392Z,100300.56
2023-03-29T22:43:56.969Z,100304.19
2023-03-29T22:46:24.063Z,100300.56
2023-03-29T22:48:51.360Z,100300.44
2023-03-29T22:51:18.209Z,100299.81
2023-03-29T22:53:47.242Z,100292.81
2023-03-29T22:56:15.597Z,100295.47
2023-03-29T22:58:42.453Z,100303.69
2023-03-29T23:01:09.489Z,100303.69
2023-03-29T23:03:37.002Z,100302.84
2023-03-29T23:06:04.357Z,100303.81
2023-03-29T23:08:33.151Z,100305.03
2023-03-29T23:11:00.370Z,100289.16
2023-03-29T23:13:29.395Z,100282.59
2023-03-29T23:15:59.226Z,100288.75
2023-03-29T23:18:28.775Z,100284.19
2023-03-29T23:20:57.334Z,100284.19
2023-03-29T23:23:26.028Z,100292.19
2023-03-29T23:25:53.511Z,100280.91
2023-03-29T23:28:23.767Z,100273.16
2023-03-29T23:31:11.839Z,100286.97
2023-03-29T23:33:42.940Z,100283.34
2023-03-29T23:36:15.270Z,100282.38
2023-03-29T23:38:43.599Z,100283.34
2023-03-29T23:41:11.070Z,100276.41
2023-03-29T23:43:40.729Z,100274.97
2023-03-29T23:46:13.333Z,100277.63
2023-03-29T23:48:40.172Z,100265.50
2023-03-29T23:51:08.370Z,100270.72
2023-03-29T23:53:35.040Z,100266.47
2023-03-29T23:56:03.997Z,100263.81
2023-03-29T23:58:33.131Z,100254.63
